createdAt,value
2023-05-19T00:02:18.736Z,1.77
2023-05-19T00:04:49.870Z,2.20
2023-05-19T00:07:21.364Z,2.58
2023-05-19T00:09:53.517Z,2.17
2023-05-19T00:12:23.464Z,2.72
2023-05-19T00:14:53.600Z,2.23
2023-05-19T00:17:23.791Z,2.10
2023-05-19T00:19:55.057Z,2.30
2023-05-19T00:22:24.670Z,2.17
2023-05-19T00:24:55.789Z,1.92
2023-05-19T00:27:25.029Z,2.13
2023-05-19T00:29:54.940Z,2.50
2023-05-19T00:32:24.220Z,2.53
2023-05-19T00:34:53.868Z,1.85
2023-05-19T00:37:23.746Z,1.98
2023-05-19T00:39:54.967Z,2.08
2023-05-19T00:42:24.756Z,2.03
2023-05-19T00:44:54.799Z,1.98
2023-05-19T00:47:24.649Z,1.77
2023-05-19T00:49:55.454Z,1.60
2023-05-19T00:52:24.955Z,1.50
2023-05-19T00:54:57.686Z,2.03
2023-05-19T00:57:27.537Z,2.03
2023-05-19T00:59:57.991Z,2.38
2023-05-19T01:02:30.009Z,1.95
2023-05-19T01:05:00.047Z,1.73
2023-05-19T01:07:30.167Z,1.65
2023-05-19T01:10:01.368Z,2.10
2023-05-19T01:12:31.736Z,2.33
2023-05-19T01:15:01.486Z,1.98
2023-05-19T01:17:42.716Z,1.90
2023-05-19T01:20:18.758Z,1.70
2023-05-19T01:23:17.065Z,1.88
2023-05-19T01:26:18.964Z,2.22
2023-05-19T01:29:14.768Z,1.77
2023-05-19T01:31:49.191Z,2.15
2023-05-19T01:34:19.099Z,1.55
2023-05-19T01:36:50.332Z,1.70
2023-05-19T01:41:50.156Z,1.70
2023-05-19T01:44:22.457Z,2.00
2023-05-19T01:46:54.663Z,2.20
2023-05-19T01:49:24.053Z,2.10
2023-05-19T01:51:54.705Z,1.70
2023-05-19T01:54:24.164Z,2.10
2023-05-19T01:57:01.818Z,1.67
2023-05-19T01:59:44.011Z,2.30
2023-05-19T02:02:27.413Z,1.70
2023-05-19T02:05:04.461Z,1.52
2023-05-19T02:07:45.908Z,1.50
2023-05-19T02:10:24.701Z,2.13
2023-05-19T02:12:55.916Z,1.80
2023-05-19T02:15:30.265Z,1.58
2023-05-19T02:18:04.809Z,1.63
2023-05-19T02:20:34.736Z,3.10
2023-05-19T02:23:04.991Z,1.88
2023-05-19T02:25:34.286Z,1.60
2023-05-19T02:28:04.346Z,1.60
2023-05-19T02:30:34.089Z,1.98
2023-05-19T02:33:06.725Z,1.67
2023-05-19T02:35:36.080Z,1.80
2023-05-19T02:38:06.063Z,2.92
2023-05-19T02:40:35.353Z,1.98
2023-05-19T02:43:05.112Z,1.38
2023-05-19T02:45:34.527Z,1.67
2023-05-19T02:48:06.644Z,2.53
2023-05-19T02:50:35.972Z,2.22
2023-05-19T02:53:06.583Z,2.20
2023-05-19T02:55:35.895Z,2.05
2023-05-19T02:58:05.929Z,1.77
2023-05-19T03:00:35.293Z,2.13
2023-05-19T03:03:06.524Z,1.80
2023-05-19T03:08:06.477Z,1.77
2023-05-19T03:10:35.722Z,1.60
2023-05-19T03:13:05.600Z,1.83
2023-05-19T03:15:35.554Z,1.35
2023-05-19T03:18:07.951Z,1.45
2023-05-19T03:20:40.253Z,2.35
2023-05-19T03:23:11.703Z,1.95
2023-05-19T03:25:41.288Z,1.20
2023-05-19T03:28:11.061Z,1.27
2023-05-19T03:30:40.388Z,1.40
2023-05-19T03:33:11.750Z,1.35
2023-05-19T03:35:41.239Z,1.02
2023-05-19T03:38:10.862Z,1.17
2023-05-19T03:40:41.647Z,0.98
2023-05-19T03:43:11.652Z,0.93
2023-05-19T03:45:41.069Z,2.53
2023-05-19T03:48:12.855Z,1.00
2023-05-19T03:50:42.797Z,1.50
2023-05-19T03:53:12.710Z,0.73
2023-05-19T03:55:42.052Z,1.45
2023-05-19T03:58:11.671Z,0.82
2023-05-19T04:00:41.141Z,1.02
2023-05-19T04:03:12.700Z,0.60
2023-05-19T04:08:11.582Z,0.75
2023-05-19T04:10:40.853Z,0.85
2023-05-19T04:13:10.676Z,1.02
2023-05-19T04:15:41.296Z,0.60
2023-05-19T04:18:12.616Z,0.80
2023-05-19T04:23:11.158Z,0.60
2023-05-19T04:25:41.116Z,0.73
2023-05-19T04:28:11.481Z,0.50
2023-05-19T04:30:40.937Z,1.00
2023-05-19T04:33:12.179Z,0.68
2023-05-19T04:38:12.335Z,0.75
2023-05-19T04:40:42.802Z,0.65
2023-05-19T04:43:12.510Z,1.05
2023-05-19T04:45:42.829Z,0.82
2023-05-19T04:48:14.352Z,0.82
2023-05-19T04:50:49.106Z,0.80
2023-05-19T04:53:19.207Z,0.82
2023-05-19T04:55:48.827Z,0.98
2023-05-19T04:58:19.053Z,0.80
2023-05-19T05:00:48.635Z,1.20
2023-05-19T05:03:23.250Z,1.20
2023-05-19T05:05:53.144Z,0.93
2023-05-19T05:08:23.659Z,0.82
2023-05-19T05:10:54.033Z,0.70
2023-05-19T05:13:25.896Z,0.80
2023-05-19T05:15:56.529Z,0.80
2023-05-19T05:18:28.330Z,0.63
2023-05-19T05:20:58.748Z,0.82
2023-05-19T05:23:29.048Z,1.00
2023-05-19T05:25:58.996Z,1.17
2023-05-19T05:28:28.741Z,0.88
2023-05-19T05:30:58.189Z,0.65
2023-05-19T05:33:29.840Z,0.65
2023-05-19T05:35:59.267Z,0.77
2023-05-19T05:38:28.932Z,0.68
2023-05-19T05:40:58.196Z,1.05
2023-05-19T05:43:27.842Z,0.93
2023-05-19T05:45:57.398Z,0.75
2023-05-19T05:48:29.649Z,1.13
2023-05-19T05:51:00.691Z,0.73
2023-05-19T05:53:33.618Z,0.80
2023-05-19T05:56:03.663Z,0.93
2023-05-19T05:58:37.364Z,0.73
2023-05-19T06:01:10.702Z,0.65
2023-05-19T06:03:44.628Z,0.98
2023-05-19T06:06:13.995Z,0.70
2023-05-19T06:08:43.715Z,0.60
2023-05-19T06:11:12.983Z,1.00
2023-05-19T06:13:42.828Z,0.70
2023-05-19T06:16:12.129Z,1.10
2023-05-19T06:18:43.364Z,0.93
2023-05-19T06:26:13.080Z,1.10
2023-05-19T06:28:42.749Z,1.55
2023-05-19T06:31:12.050Z,0.80
2023-05-19T06:33:43.327Z,0.95
2023-05-19T06:38:42.236Z,0.95
2023-05-19T06:41:11.633Z,1.30
2023-05-19T06:43:41.347Z,1.38
2023-05-19T06:46:10.894Z,1.08
2023-05-19T06:48:40.610Z,1.00
2023-05-19T06:51:11.683Z,0.90
2023-05-19T06:53:41.317Z,0.77
2023-05-19T06:56:10.688Z,0.77
2023-05-19T06:58:41.150Z,1.42
2023-05-19T07:01:10.470Z,0.85
2023-05-19T07:03:40.287Z,0.55
2023-05-19T07:06:11.531Z,0.70
2023-05-19T07:08:41.547Z,0.63
2023-05-19T07:11:12.630Z,0.63
2023-05-19T07:13:42.728Z,0.80
2023-05-19T07:16:12.114Z,1.02
2023-05-19T07:21:13.316Z,0.60
2023-05-19T07:23:42.950Z,0.77
2023-05-19T07:26:12.423Z,0.90
2023-05-19T07:28:43.195Z,0.65
2023-05-19T07:31:12.497Z,1.15
2023-05-19T07:33:42.945Z,0.70
2023-05-19T07:36:13.976Z,0.43
2023-05-19T07:38:44.495Z,0.65
2023-05-19T07:41:14.066Z,1.38
2023-05-19T07:43:43.940Z,0.83
2023-05-19T07:46:13.322Z,0.65
2023-05-19T07:48:43.054Z,1.05
2023-05-19T07:51:14.680Z,0.93
2023-05-19T07:53:44.343Z,1.58
2023-05-19T07:56:13.659Z,1.42
2023-05-19T07:58:43.584Z,1.00
2023-05-19T08:01:12.815Z,0.90
2023-05-19T08:03:42.793Z,0.63
2023-05-19T08:06:13.548Z,0.88
2023-05-19T08:08:43.753Z,0.80
2023-05-19T08:11:13.008Z,0.73
2023-05-19T08:13:42.643Z,0.88
2023-05-19T08:16:11.976Z,0.88
2023-05-19T08:18:41.912Z,1.05
2023-05-19T08:21:12.712Z,0.80
2023-05-19T08:23:42.462Z,0.68
2023-05-19T08:26:11.733Z,0.98
2023-05-19T08:28:41.857Z,0.77
2023-05-19T08:31:11.173Z,0.90
2023-05-19T08:33:40.925Z,0.85
2023-05-19T08:36:10.261Z,1.08
2023-05-19T08:38:41.518Z,1.15
2023-05-19T08:41:10.961Z,1.00
2023-05-19T08:43:40.981Z,0.80
2023-05-19T08:46:13.665Z,0.80
2023-05-19T08:48:45.834Z,0.90
2023-05-19T08:51:25.043Z,0.60
2023-05-19T08:54:01.338Z,0.80
2023-05-19T08:56:31.584Z,1.05
2023-05-19T08:59:01.410Z,0.98
2023-05-19T09:01:31.874Z,0.68
2023-05-19T09:04:01.914Z,0.90
2023-05-19T09:06:32.617Z,1.35
2023-05-19T09:09:05.649Z,0.80
2023-05-19T09:11:35.977Z,1.10
2023-05-19T09:16:35.304Z,1.42
2023-05-19T09:19:05.105Z,0.98
2023-05-19T09:21:34.746Z,0.68
2023-05-19T09:24:08.957Z,1.53
2023-05-19T09:26:40.239Z,6.07
2023-05-19T09:29:14.323Z,1.20
2023-05-19T09:31:51.243Z,2.30
2023-05-19T09:34:21.887Z,1.45
2023-05-19T09:36:52.166Z,0.85
2023-05-19T09:39:25.436Z,1.77
2023-05-19T09:41:55.598Z,0.95
2023-05-19T09:44:29.192Z,0.90
2023-05-19T09:47:00.200Z,1.02
2023-05-19T09:49:31.651Z,1.27
2023-05-19T09:52:04.128Z,0.77
2023-05-19T09:54:36.295Z,0.98
2023-05-19T09:57:08.626Z,1.38
2023-05-19T09:59:40.328Z,1.00
2023-05-19T10:02:21.817Z,0.90
2023-05-19T10:04:52.952Z,1.30
2023-05-19T10:09:56.774Z,1.38
2023-05-19T10:12:28.449Z,1.17
2023-05-19T10:14:59.612Z,1.15
2023-05-19T10:20:01.093Z,0.98
2023-05-19T10:22:30.703Z,1.33
2023-05-19T10:25:01.910Z,2.08
2023-05-19T10:30:10.080Z,1.55
2023-05-19T10:32:44.412Z,2.08
2023-05-19T10:35:45.383Z,1.30
2023-05-19T10:38:24.531Z,1.48
2023-05-19T10:41:03.683Z,1.40
2023-05-19T10:43:44.799Z,1.20
2023-05-19T10:46:14.518Z,1.20
2023-05-19T10:48:47.506Z,1.27
2023-05-19T10:51:17.659Z,1.25
2023-05-19T10:53:47.453Z,1.95
2023-05-19T10:56:34.101Z,1.75
2023-05-19T10:59:03.986Z,1.02
2023-05-19T11:01:35.597Z,1.17
2023-05-19T11:04:12.481Z,1.40
2023-05-19T11:06:42.418Z,1.10
2023-05-19T11:09:16.115Z,1.55
2023-05-19T11:11:49.376Z,1.38
2023-05-19T11:14:20.579Z,1.15
2023-05-19T11:16:51.444Z,1.92
2023-05-19T11:19:21.955Z,1.40
2023-05-19T11:21:55.385Z,1.52
2023-05-19T11:24:37.865Z,1.73
2023-05-19T11:27:27.563Z,1.30
2023-05-19T11:29:59.504Z,1.60
2023-05-19T11:32:33.877Z,1.58
2023-05-19T11:35:03.769Z,1.50
2023-05-19T11:37:35.132Z,1.10
2023-05-19T11:40:07.301Z,1.75
2023-05-19T11:42:39.135Z,1.05
2023-05-19T11:45:10.714Z,1.02
2023-05-19T11:47:57.159Z,1.38
2023-05-19T11:50:30.315Z,1.42
2023-05-19T11:53:02.615Z,1.73
2023-05-19T11:55:33.096Z,1.45
2023-05-19T11:58:06.132Z,1.50
2023-05-19T12:00:39.656Z,1.40
2023-05-19T12:03:10.682Z,1.27
2023-05-19T12:05:43.698Z,1.10
2023-05-19T12:08:13.999Z,2.22
2023-05-19T12:10:43.553Z,1.65
2023-05-19T12:13:14.730Z,1.77
2023-05-19T12:18:13.446Z,1.38
2023-05-19T12:20:42.924Z,1.38
2023-05-19T12:23:12.793Z,1.75
2023-05-19T12:25:42.208Z,1.48
2023-05-19T12:28:11.978Z,2.13
2023-05-19T12:30:49.097Z,2.40
2023-05-19T12:33:19.217Z,1.70
2023-05-19T12:35:50.278Z,1.85
2023-05-19T12:38:22.073Z,1.50
2023-05-19T12:40:52.549Z,2.03
2023-05-19T12:43:23.080Z,1.67
2023-05-19T12:45:54.357Z,1.52
2023-05-19T12:48:24.311Z,1.30
2023-05-19T12:50:56.040Z,1.60
2023-05-19T12:53:28.604Z,1.63
2023-05-19T12:55:58.018Z,2.03
2023-05-19T12:58:28.018Z,1.40
2023-05-19T13:01:01.427Z,1.58
2023-05-19T13:03:31.324Z,3.35
2023-05-19T13:06:01.025Z,1.65
2023-05-19T13:08:30.790Z,1.48
2023-05-19T13:11:00.114Z,1.42
2023-05-19T13:13:29.848Z,1.50
2023-05-19T13:16:00.655Z,2.03
2023-05-19T13:18:32.457Z,3.00
2023-05-19T13:21:01.736Z,1.67
2023-05-19T13:23:31.428Z,2.20
2023-05-19T13:26:00.862Z,1.63
2023-05-19T13:28:30.492Z,1.88
2023-05-19T13:31:01.259Z,1.77
2023-05-19T13:33:31.141Z,1.67
2023-05-19T13:36:00.479Z,1.52
2023-05-19T13:38:31.181Z,1.38
2023-05-19T13:41:00.658Z,2.10
2023-05-19T13:43:30.627Z,1.57
2023-05-19T13:46:01.670Z,1.30
2023-05-19T13:48:31.349Z,1.50
2023-05-19T13:51:00.634Z,1.52
2023-05-19T13:53:33.100Z,1.73
2023-05-19T13:56:02.980Z,1.38
2023-05-19T13:58:33.288Z,1.70
2023-05-19T14:01:04.088Z,1.95
2023-05-19T14:03:33.918Z,2.03
2023-05-19T14:06:03.369Z,1.95
2023-05-19T14:08:33.489Z,1.77
2023-05-19T14:11:02.791Z,2.13
2023-05-19T14:13:36.136Z,1.88
2023-05-19T14:16:10.509Z,1.85
2023-05-19T14:18:40.227Z,2.08
2023-05-19T14:21:09.795Z,1.92
2023-05-19T14:23:39.731Z,1.73
2023-05-19T14:26:09.195Z,1.77
2023-05-19T14:28:38.972Z,2.67
2023-05-19T14:31:13.388Z,2.25
2023-05-19T14:33:43.611Z,2.30
2023-05-19T14:36:12.927Z,2.85
2023-05-19T14:38:43.054Z,2.33
2023-05-19T14:41:12.378Z,2.30
2023-05-19T14:43:43.451Z,2.00
2023-05-19T14:46:14.180Z,3.00
2023-05-19T14:48:43.913Z,2.72
2023-05-19T14:51:13.414Z,2.70
2023-05-19T14:53:43.044Z,2.30
2023-05-19T14:56:12.354Z,2.30
2023-05-19T14:58:41.991Z,2.78
2023-05-19T15:01:11.525Z,2.75
2023-05-19T15:03:42.829Z,2.28
2023-05-19T15:08:42.279Z,2.03
2023-05-19T15:11:11.582Z,2.58
2023-05-19T15:13:41.355Z,2.45
2023-05-19T15:16:17.674Z,2.80
2023-05-19T15:18:49.362Z,2.78
2023-05-19T15:21:18.683Z,2.75
2023-05-19T15:23:48.329Z,3.20
2023-05-19T15:26:17.861Z,2.85
2023-05-19T15:28:47.894Z,2.97
2023-05-19T15:31:17.479Z,3.05
2023-05-19T15:33:48.970Z,2.45
2023-05-19T15:36:18.272Z,3.63
2023-05-19T15:38:47.914Z,3.20
2023-05-19T15:41:17.359Z,2.95
2023-05-19T15:43:47.606Z,3.50
2023-05-19T15:46:19.431Z,3.30
2023-05-19T15:48:50.561Z,3.28
2023-05-19T15:51:19.986Z,3.85
2023-05-19T15:53:49.684Z,3.00
2023-05-19T15:56:19.624Z,3.10
2023-05-19T15:58:49.537Z,2.10
2023-05-19T16:01:19.456Z,2.75
2023-05-19T16:03:50.689Z,2.80
2023-05-19T16:06:20.068Z,3.22
2023-05-19T16:08:49.734Z,2.65
2023-05-19T16:11:20.892Z,2.70
2023-05-19T16:13:50.960Z,2.60
2023-05-19T16:16:20.390Z,3.42
2023-05-19T16:18:51.657Z,2.85
2023-05-19T16:23:51.246Z,3.70
2023-05-19T16:26:20.541Z,3.95
2023-05-19T16:28:50.227Z,3.85
2023-05-19T16:31:19.630Z,4.80
2023-05-19T16:33:51.206Z,4.90
2023-05-19T16:38:53.661Z,3.40
2023-05-19T16:41:23.178Z,2.95
2023-05-19T16:43:52.923Z,2.97
2023-05-19T16:46:22.247Z,3.40
2023-05-19T16:48:53.403Z,3.55
2023-05-19T16:51:23.169Z,3.30
2023-05-19T16:53:53.814Z,3.50
2023-05-19T16:56:23.341Z,3.67
2023-05-19T16:58:54.211Z,3.63
2023-05-19T17:01:23.597Z,4.43
2023-05-19T17:03:55.926Z,3.88
2023-05-19T17:06:25.280Z,3.42
2023-05-19T17:08:54.970Z,4.25
2023-05-19T17:11:24.260Z,3.70
2023-05-19T17:13:54.118Z,3.00
2023-05-19T17:16:23.749Z,3.47
2023-05-19T17:18:55.154Z,3.57
2023-05-19T17:21:24.604Z,2.90
2023-05-19T17:23:54.277Z,3.22
2023-05-19T17:26:23.671Z,3.75
2023-05-19T17:28:53.296Z,3.03
2023-05-19T17:31:22.621Z,3.53
2023-05-19T17:33:53.810Z,2.58
2023-05-19T17:38:52.485Z,2.17
2023-05-19T17:41:22.132Z,2.13
2023-05-19T17:43:51.955Z,2.87
2023-05-19T17:46:21.312Z,2.58
2023-05-19T17:48:51.123Z,2.60
2023-05-19T17:51:22.664Z,3.33
2023-05-19T17:53:52.856Z,2.45
2023-05-19T17:56:23.679Z,2.25
2023-05-19T17:58:54.052Z,3.70
2023-05-19T18:01:26.026Z,3.13
2023-05-19T18:03:56.565Z,3.42
2023-05-19T18:06:28.915Z,5.00
2023-05-19T18:09:00.898Z,3.95
2023-05-19T18:11:30.942Z,4.00
2023-05-19T18:14:00.925Z,4.30
2023-05-19T18:16:30.301Z,3.60
2023-05-19T18:19:00.093Z,5.68
2023-05-19T18:21:31.639Z,6.63
2023-05-19T18:24:03.348Z,3.70
2023-05-19T18:26:33.352Z,5.60
2023-05-19T18:29:05.203Z,4.82
2023-05-19T18:31:34.504Z,5.43
2023-05-19T18:34:04.644Z,5.82
2023-05-19T18:36:36.473Z,5.53
2023-05-19T18:39:06.497Z,5.32
2023-05-19T18:41:37.682Z,6.95
2023-05-19T18:44:08.300Z,8.35
2023-05-19T18:46:37.974Z,7.00
2023-05-19T18:49:08.706Z,5.77
2023-05-19T18:51:40.762Z,5.53
2023-05-19T18:54:10.386Z,5.65
2023-05-19T18:56:39.613Z,6.88
2023-05-19T18:59:10.063Z,6.32
2023-05-19T19:01:39.445Z,7.17
2023-05-19T19:04:09.373Z,6.18
2023-05-19T19:06:41.021Z,6.68
2023-05-19T19:09:12.036Z,7.95
2023-05-19T19:11:41.378Z,7.22
2023-05-19T19:14:11.303Z,8.05
2023-05-19T19:16:40.778Z,7.25
2023-05-19T19:19:10.552Z,6.05
2023-05-19T19:21:41.475Z,6.43
2023-05-19T19:24:11.115Z,5.43
2023-05-19T19:26:40.491Z,5.90
2023-05-19T19:29:10.190Z,6.13
2023-05-19T19:31:39.858Z,4.30
2023-05-19T19:34:11.497Z,5.00
2023-05-19T19:39:11.657Z,4.53
2023-05-19T19:41:41.230Z,4.60
2023-05-19T19:44:10.881Z,3.95
2023-05-19T19:46:40.411Z,4.95
2023-05-19T19:49:10.121Z,3.97
2023-05-19T19:51:39.447Z,4.00
2023-05-19T19:54:11.011Z,3.97
2023-05-19T19:59:09.635Z,3.20
2023-05-19T20:01:39.236Z,3.28
2023-05-19T20:04:09.266Z,3.60
2023-05-19T20:06:38.768Z,3.55
2023-05-19T20:09:09.853Z,3.45
2023-05-19T20:11:39.164Z,3.00
2023-05-19T20:14:09.004Z,3.05
2023-05-19T20:16:40.765Z,4.63
2023-05-19T20:19:12.061Z,3.58
2023-05-19T20:21:41.362Z,3.15
2023-05-19T20:24:12.508Z,3.17
2023-05-19T20:26:42.086Z,4.55
2023-05-19T20:29:11.898Z,7.50
2023-05-19T20:31:41.407Z,4.60
2023-05-19T20:34:11.084Z,3.50
2023-05-19T20:36:40.933Z,3.25
2023-05-19T20:39:12.033Z,3.65
2023-05-19T20:41:41.318Z,4.97
2023-05-19T20:44:11.914Z,6.00
2023-05-19T20:46:41.200Z,5.47
2023-05-19T20:49:10.856Z,4.25
2023-05-19T20:51:40.223Z,3.80
2023-05-19T20:54:10.120Z,4.40
2023-05-19T20:56:40.829Z,4.10
2023-05-19T20:59:10.888Z,3.50
2023-05-19T21:01:40.603Z,3.38
2023-05-19T21:04:10.402Z,3.55
2023-05-19T21:06:39.790Z,4.00
2023-05-19T21:09:10.798Z,3.80
2023-05-19T21:11:41.661Z,3.70
2023-05-19T21:14:11.297Z,3.47
2023-05-19T21:16:40.664Z,3.40
2023-05-19T21:19:10.315Z,3.75
2023-05-19T21:21:42.912Z,3.10
2023-05-19T21:24:13.468Z,2.80
2023-05-19T21:26:44.853Z,2.65
2023-05-19T21:29:14.639Z,1.80
2023-05-19T21:31:43.940Z,2.20
2023-05-19T21:34:13.620Z,1.88
2023-05-19T21:36:43.088Z,1.70
2023-05-19T21:39:12.909Z,1.65
2023-05-19T21:41:43.666Z,2.60
2023-05-19T21:44:13.262Z,1.83
2023-05-19T21:46:42.568Z,2.00
2023-05-19T21:49:12.242Z,2.38
2023-05-19T21:51:42.002Z,2.10
2023-05-19T21:54:11.961Z,1.70
2023-05-19T21:56:41.389Z,1.73
2023-05-19T21:59:13.194Z,2.08
2023-05-19T22:01:42.930Z,1.30
2023-05-19T22:04:15.113Z,1.92
2023-05-19T22:06:45.798Z,1.77
2023-05-19T22:09:15.561Z,1.67
2023-05-19T22:11:44.984Z,1.52
2023-05-19T22:14:16.190Z,1.42
2023-05-19T22:16:47.750Z,1.23
2023-05-19T22:19:17.471Z,1.33
2023-05-19T22:21:47.196Z,1.75
2023-05-19T22:24:18.762Z,1.30
2023-05-19T22:26:48.041Z,1.23
2023-05-19T22:29:20.306Z,1.35
2023-05-19T22:31:49.637Z,0.90
2023-05-19T22:34:19.705Z,1.00
2023-05-19T22:36:49.823Z,0.85
2023-05-19T22:39:19.473Z,1.05
2023-05-19T22:41:48.724Z,1.20
2023-05-19T22:44:20.014Z,0.70
2023-05-19T22:46:49.292Z,0.85
2023-05-19T22:49:19.260Z,0.97
2023-05-19T22:51:48.620Z,0.70
2023-05-19T22:54:18.307Z,0.73
2023-05-19T22:56:49.110Z,0.60
2023-05-19T22:59:20.170Z,0.45
2023-05-19T23:04:18.963Z,0.75
2023-05-19T23:06:49.691Z,0.85
2023-05-19T23:09:19.558Z,0.70
2023-05-19T23:11:49.003Z,0.68
2023-05-19T23:14:22.048Z,1.23
2023-05-19T23:16:51.383Z,0.70
2023-05-19T23:19:21.882Z,0.80
2023-05-19T23:21:51.480Z,0.82
2023-05-19T23:24:21.134Z,0.40
2023-05-19T23:26:50.449Z,0.68
2023-05-19T23:29:22.080Z,0.70
2023-05-19T23:31:51.454Z,0.65
2023-05-19T23:34:21.155Z,0.75
2023-05-19T23:36:50.520Z,0.75
2023-05-19T23:39:20.275Z,0.80
2023-05-19T23:41:49.519Z,0.40
2023-05-19T23:44:21.863Z,1.10
2023-05-19T23:46:51.138Z,2.08
2023-05-19T23:49:20.985Z,0.57
2023-05-19T23:51:50.265Z,0.47
2023-05-19T23:54:19.902Z,0.77
2023-05-19T23:56:49.187Z,0.60
2023-05-19T23:59:18.788Z,0.88
